sensor_id;sensor_type;location;lat;lon;timestamp;P1;durP1;ratioP1;P2;durP2;ratioP2
15393;SDS011;7795;47.986;11.868;2022-12-31T00:01:05;3.90;;;3.50;;
15393;SDS011;7795;47.986;11.868;2022-12-31T00:03:33;3.97;;;3.40;;
15393;SDS011;7795;47.986;11.868;2022-12-31T00:05:59;4.37;;;3.27;;
15393;SDS011;7795;47.986;11.868;2022-12-31T00:08:24;4.80;;;3.70;;
15393;SDS011;7795;47.986;11.868;2022-12-31T00:10:50;2.13;;;1.90;;
15393;SDS011;7795;47.986;11.868;2022-12-31T00:13:17;2.20;;;1.93;;
15393;SDS011;7795;47.986;11.868;2022-12-31T00:15:43;1.73;;;1.40;;
15393;SDS011;7795;47.986;11.868;2022-12-31T00:18:09;1.83;;;1.63;;
15393;SDS011;7795;47.986;11.868;2022-12-31T00:20:37;1.50;;;1.40;;
15393;SDS011;7795;47.986;11.868;2022-12-31T00:23:04;2.40;;;1.77;;
15393;SDS011;7795;47.986;11.868;2022-12-31T00:25:30;2.33;;;1.83;;
15393;SDS011;7795;47.986;11.868;2022-12-31T00:27:58;2.00;;;1.60;;
15393;SDS011;7795;47.986;11.868;2022-12-31T00:30:25;2.30;;;1.80;;
15393;SDS011;7795;47.986;11.868;2022-12-31T00:32:51;2.60;;;1.80;;
15393;SDS011;7795;47.986;11.868;2022-12-31T00:35:17;2.70;;;2.20;;
15393;SDS011;7795;47.986;11.868;2022-12-31T00:37:42;2.73;;;2.27;;
15393;SDS011;7795;47.986;11.868;2022-12-31T00:40:09;4.23;;;2.30;;
15393;SDS011;7795;47.986;11.868;2022-12-31T00:42:35;1.90;;;1.80;;
15393;SDS011;7795;47.986;11.868;2022-12-31T00:45:01;6.13;;;2.20;;
15393;SDS011;7795;47.986;11.868;2022-12-31T00:47:28;4.43;;;3.00;;
15393;SDS011;7795;47.986;11.868;2022-12-31T00:49:54;5.33;;;3.57;;
15393;SDS011;7795;47.986;11.868;2022-12-31T00:52:20;7.53;;;5.20;;
15393;SDS011;7795;47.986;11.868;2022-12-31T00:54:45;5.20;;;3.80;;
15393;SDS011;7795;47.986;11.868;2022-12-31T00:57:11;2.47;;;1.80;;
15393;SDS011;7795;47.986;11.868;2022-12-31T00:59:37;3.47;;;1.80;;
15393;SDS011;7795;47.986;11.868;2022-12-31T01:02:03;2.33;;;1.70;;
15393;SDS011;7795;47.986;11.868;2022-12-31T01:04:30;1.47;;;1.00;;
15393;SDS011;7795;47.986;11.868;2022-12-31T01:06:56;1.23;;;0.80;;
15393;SDS011;7795;47.986;11.868;2022-12-31T01:09:21;1.60;;;0.70;;
15393;SDS011;7795;47.986;11.868;2022-12-31T01:11:48;0.60;;;0.60;;
15393;SDS011;7795;47.986;11.868;2022-12-31T01:14:15;0.60;;;0.60;;
15393;SDS011;7795;47.986;11.868;2022-12-31T01:16:43;0.60;;;0.60;;
15393;SDS011;7795;47.986;11.868;2022-12-31T01:19:11;0.50;;;0.50;;
15393;SDS011;7795;47.986;11.868;2022-12-31T01:21:40;0.60;;;0.60;;
15393;SDS011;7795;47.986;11.868;2022-12-31T01:24:08;0.60;;;0.60;;
15393;SDS011;7795;47.986;11.868;2022-12-31T01:26:35;0.40;;;0.40;;
15393;SDS011;7795;47.986;11.868;2022-12-31T01:29:01;0.40;;;0.40;;
15393;SDS011;7795;47.986;11.868;2022-12-31T01:31:27;0.50;;;0.50;;
15393;SDS011;7795;47.986;11.868;2022-12-31T01:33:53;0.67;;;0.67;;
15393;SDS011;7795;47.986;11.868;2022-12-31T01:36:19;0.70;;;0.70;;
15393;SDS011;7795;47.986;11.868;2022-12-31T01:38:48;0.47;;;0.47;;
15393;SDS011;7795;47.986;11.868;2022-12-31T01:41:14;0.60;;;0.60;;
15393;SDS011;7795;47.986;11.868;2022-12-31T01:43:43;0.40;;;0.40;;
15393;SDS011;7795;47.986;11.868;2022-12-31T01:46:12;0.60;;;0.60;;
15393;SDS011;7795;47.986;11.868;2022-12-31T01:48:41;0.50;;;0.50;;
15393;SDS011;7795;47.986;11.868;2022-12-31T01:51:09;0.60;;;0.60;;
15393;SDS011;7795;47.986;11.868;2022-12-31T01:53:35;0.60;;;0.60;;
15393;SDS011;7795;47.986;11.868;2022-12-31T01:56:03;0.60;;;0.60;;
15393;SDS011;7795;47.986;11.868;2022-12-31T01:58:30;0.40;;;0.40;;
15393;SDS011;7795;47.986;11.868;2022-12-31T02:01:00;0.30;;;0.30;;
15393;SDS011;7795;47.986;11.868;2022-12-31T02:03:27;0.40;;;0.40;;
15393;SDS011;7795;47.986;11.868;2022-12-31T02:05:53;0.47;;;0.47;;
15393;SDS011;7795;47.986;11.868;2022-12-31T02:08:27;0.40;;;0.40;;
15393;SDS011;7795;47.986;11.868;2022-12-31T02:10:52;0.40;;;0.40;;
15393;SDS011;7795;47.986;11.868;2022-12-31T02:13:20;0.40;;;0.40;;
15393;SDS011;7795;47.986;11.868;2022-12-31T02:15:50;0.40;;;0.40;;
15393;SDS011;7795;47.986;11.868;2022-12-31T02:18:25;0.50;;;0.50;;
15393;SDS011;7795;47.986;11.868;2022-12-31T02:21:08;0.50;;;0.50;;
15393;SDS011;7795;47.986;11.868;2022-12-31T02:23:54;0.30;;;0.30;;
15393;SDS011;7795;47.986;11.868;2022-12-31T02:26:51;0.47;;;0.47;;
15393;SDS011;7795;47.986;11.868;2022-12-31T02:29:30;0.40;;;0.37;;
15393;SDS011;7795;47.986;11.868;2022-12-31T02:32:23;0.40;;;0.40;;
15393;SDS011;7795;47.986;11.868;2022-12-31T02:34:56;0.50;;;0.50;;
15393;SDS011;7795;47.986;11.868;2022-12-31T02:37:26;0.50;;;0.50;;
15393;SDS011;7795;47.986;11.868;2022-12-31T02:39:54;0.77;;;0.67;;
15393;SDS011;7795;47.986;11.868;2022-12-31T02:42:20;0.50;;;0.50;;
15393;SDS011;7795;47.986;11.868;2022-12-31T02:44:46;0.60;;;0.60;;
15393;SDS011;7795;47.986;11.868;2022-12-31T02:47:15;1.03;;;0.60;;
15393;SDS011;7795;47.986;11.868;2022-12-31T02:49:50;0.70;;;0.70;;
15393;SDS011;7795;47.986;11.868;2022-12-31T02:52:26;1.20;;;0.67;;
15393;SDS011;7795;47.986;11.868;2022-12-31T02:55:05;0.80;;;0.70;;
15393;SDS011;7795;47.986;11.868;2022-12-31T02:57:41;0.70;;;0.67;;
15393;SDS011;7795;47.986;11.868;2022-12-31T03:00:12;1.10;;;0.77;;
15393;SDS011;7795;47.986;11.868;2022-12-31T03:02:58;0.70;;;0.63;;
15393;SDS011;7795;47.986;11.868;2022-12-31T03:05:28;1.00;;;0.80;;
15393;SDS011;7795;47.986;11.868;2022-12-31T03:07:56;0.70;;;0.57;;
15393;SDS011;7795;47.986;11.868;2022-12-31T03:10:22;2.33;;;1.27;;
15393;SDS011;7795;47.986;11.868;2022-12-31T03:12:48;2.63;;;1.47;;
15393;SDS011;7795;47.986;11.868;2022-12-31T03:15:16;2.50;;;1.63;;
15393;SDS011;7795;47.986;11.868;2022-12-31T03:17:45;4.00;;;2.00;;
15393;SDS011;7795;47.986;11.868;2022-12-31T03:20:12;4.00;;;2.30;;
15393;SDS011;7795;47.986;11.868;2022-12-31T03:22:58;3.60;;;2.20;;
15393;SDS011;7795;47.986;11.868;2022-12-31T03:25:24;2.70;;;1.50;;
15393;SDS011;7795;47.986;11.868;2022-12-31T03:28:00;1.33;;;1.00;;
15393;SDS011;7795;47.986;11.868;2022-12-31T03:30:28;2.27;;;1.40;;
15393;SDS011;7795;47.986;11.868;2022-12-31T03:32:54;2.40;;;1.30;;
15393;SDS011;7795;47.986;11.868;2022-12-31T03:35:20;2.87;;;1.33;;
15393;SDS011;7795;47.986;11.868;2022-12-31T03:37:47;1.50;;;1.00;;
15393;SDS011;7795;47.986;11.868;2022-12-31T03:40:16;1.20;;;0.70;;
15393;SDS011;7795;47.986;11.868;2022-12-31T03:42:43;1.20;;;0.80;;
15393;SDS011;7795;47.986;11.868;2022-12-31T03:45:10;2.20;;;1.00;;
15393;SDS011;7795;47.986;11.868;2022-12-31T03:47:36;2.00;;;1.27;;
15393;SDS011;7795;47.986;11.868;2022-12-31T03:50:02;1.33;;;0.90;;
15393;SDS011;7795;47.986;11.868;2022-12-31T03:52:28;0.83;;;0.73;;
15393;SDS011;7795;47.986;11.868;2022-12-31T03:54:54;1.03;;;0.70;;
15393;SDS011;7795;47.986;11.868;2022-12-31T03:57:22;0.77;;;0.70;;
15393;SDS011;7795;47.986;11.868;2022-12-31T03:59:47;0.50;;;0.50;;
15393;SDS011;7795;47.986;11.868;2022-12-31T04:02:13;0.67;;;0.60;;
15393;SDS011;7795;47.986;11.868;2022-12-31T04:04:39;1.43;;;0.90;;
15393;SDS011;7795;47.986;11.868;2022-12-31T04:07:05;0.60;;;0.40;;
15393;SDS011;7795;47.986;11.868;2022-12-31T04:09:31;0.47;;;0.47;;
15393;SDS011;7795;47.986;11.868;2022-12-31T04:11:56;0.50;;;0.50;;
15393;SDS011;7795;47.986;11.868;2022-12-31T04:14:23;1.10;;;0.70;;
15393;SDS011;7795;47.986;11.868;2022-12-31T04:16:49;1.83;;;0.90;;
15393;SDS011;7795;47.986;11.868;2022-12-31T04:19:15;1.60;;;0.70;;
15393;SDS011;7795;47.986;11.868;2022-12-31T04:21:41;0.67;;;0.50;;
15393;SDS011;7795;47.986;11.868;2022-12-31T04:24:07;0.63;;;0.40;;
15393;SDS011;7795;47.986;11.868;2022-12-31T04:26:33;0.53;;;0.50;;
15393;SDS011;7795;47.986;11.868;2022-12-31T04:28:59;0.67;;;0.67;;
15393;SDS011;7795;47.986;11.868;2022-12-31T04:31:26;0.30;;;0.30;;
15393;SDS011;7795;47.986;11.868;2022-12-31T04:33:52;0.40;;;0.40;;
15393;SDS011;7795;47.986;11.868;2022-12-31T04:36:18;1.10;;;0.73;;
15393;SDS011;7795;47.986;11.868;2022-12-31T04:38:44;0.50;;;0.50;;
15393;SDS011;7795;47.986;11.868;2022-12-31T04:41:10;0.90;;;0.50;;
15393;SDS011;7795;47.986;11.868;2022-12-31T04:43:42;0.53;;;0.53;;
15393;SDS011;7795;47.986;11.868;2022-12-31T04:46:09;0.90;;;0.70;;
15393;SDS011;7795;47.986;11.868;2022-12-31T04:48:36;0.50;;;0.50;;
15393;SDS011;7795;47.986;11.868;2022-12-31T04:51:02;0.60;;;0.60;;
15393;SDS011;7795;47.986;11.868;2022-12-31T04:53:28;0.70;;;0.70;;
15393;SDS011;7795;47.986;11.868;2022-12-31T04:55:54;1.10;;;1.00;;
15393;SDS011;7795;47.986;11.868;2022-12-31T04:58:20;0.60;;;0.57;;
15393;SDS011;7795;47.986;11.868;2022-12-31T05:00:45;1.10;;;1.00;;
15393;SDS011;7795;47.986;11.868;2022-12-31T05:03:14;0.60;;;0.60;;
15393;SDS011;7795;47.986;11.868;2022-12-31T05:05:41;1.93;;;0.67;;
15393;SDS011;7795;47.986;11.868;2022-12-31T05:08:07;0.67;;;0.67;;
15393;SDS011;7795;47.986;11.868;2022-12-31T05:10:33;0.60;;;0.60;;
15393;SDS011;7795;47.986;11.868;2022-12-31T05:12:59;0.37;;;0.37;;
15393;SDS011;7795;47.986;11.868;2022-12-31T05:15:25;0.40;;;0.40;;
15393;SDS011;7795;47.986;11.868;2022-12-31T05:17:51;0.73;;;0.60;;
15393;SDS011;7795;47.986;11.868;2022-12-31T05:20:17;1.60;;;0.60;;
15393;SDS011;7795;47.986;11.868;2022-12-31T05:22:44;2.07;;;0.43;;
15393;SDS011;7795;47.986;11.868;2022-12-31T05:25:10;0.90;;;0.43;;
15393;SDS011;7795;47.986;11.868;2022-12-31T05:27:36;0.40;;;0.40;;
15393;SDS011;7795;47.986;11.868;2022-12-31T05:30:02;0.80;;;0.77;;
15393;SDS011;7795;47.986;11.868;2022-12-31T05:32:28;1.10;;;1.00;;
15393;SDS011;7795;47.986;11.868;2022-12-31T05:34:54;0.83;;;0.83;;
15393;SDS011;7795;47.986;11.868;2022-12-31T05:37:20;1.17;;;0.67;;
15393;SDS011;7795;47.986;11.868;2022-12-31T05:39:47;1.17;;;0.80;;
15393;SDS011;7795;47.986;11.868;2022-12-31T05:42:13;0.70;;;0.70;;
15393;SDS011;7795;47.986;11.868;2022-12-31T05:44:39;1.00;;;0.90;;
15393;SDS011;7795;47.986;11.868;2022-12-31T05:47:04;0.60;;;0.53;;
15393;SDS011;7795;47.986;11.868;2022-12-31T05:49:30;0.60;;;0.60;;
15393;SDS011;7795;47.986;11.868;2022-12-31T05:51:56;0.70;;;0.70;;
15393;SDS011;7795;47.986;11.868;2022-12-31T05:54:22;0.63;;;0.63;;
15393;SDS011;7795;47.986;11.868;2022-12-31T05:56:49;3.47;;;2.63;;
15393;SDS011;7795;47.986;11.868;2022-12-31T05:59:14;1.70;;;1.20;;
15393;SDS011;7795;47.986;11.868;2022-12-31T06:01:40;1.53;;;0.80;;
15393;SDS011;7795;47.986;11.868;2022-12-31T06:04:06;0.83;;;0.83;;
15393;SDS011;7795;47.986;11.868;2022-12-31T06:06:32;0.80;;;0.80;;
15393;SDS011;7795;47.986;11.868;2022-12-31T06:08:57;0.93;;;0.90;;
15393;SDS011;7795;47.986;11.868;2022-12-31T06:11:23;0.80;;;0.80;;
15393;SDS011;7795;47.986;11.868;2022-12-31T06:13:50;0.73;;;0.60;;
15393;SDS011;7795;47.986;11.868;2022-12-31T06:16:16;1.40;;;0.70;;
15393;SDS011;7795;47.986;11.868;2022-12-31T06:18:42;0.80;;;0.63;;
15393;SDS011;7795;47.986;11.868;2022-12-31T06:21:07;1.00;;;0.70;;
15393;SDS011;7795;47.986;11.868;2022-12-31T06:23:33;0.87;;;0.67;;
15393;SDS011;7795;47.986;11.868;2022-12-31T06:26:00;1.00;;;0.90;;
15393;SDS011;7795;47.986;11.868;2022-12-31T06:28:26;0.70;;;0.70;;
15393;SDS011;7795;47.986;11.868;2022-12-31T06:30:58;1.10;;;1.00;;
15393;SDS011;7795;47.986;11.868;2022-12-31T06:33:26;1.73;;;0.97;;
15393;SDS011;7795;47.986;11.868;2022-12-31T06:35:53;1.90;;;1.07;;
15393;SDS011;7795;47.986;11.868;2022-12-31T06:38:20;1.37;;;1.27;;
15393;SDS011;7795;47.986;11.868;2022-12-31T06:40:45;1.50;;;0.80;;
15393;SDS011;7795;47.986;11.868;2022-12-31T06:43:11;3.60;;;1.07;;
15393;SDS011;7795;47.986;11.868;2022-12-31T06:45:37;1.10;;;1.00;;
15393;SDS011;7795;47.986;11.868;2022-12-31T06:48:05;1.63;;;1.27;;
15393;SDS011;7795;47.986;11.868;2022-12-31T06:50:31;2.33;;;1.30;;
15393;SDS011;7795;47.986;11.868;2022-12-31T06:52:57;0.80;;;0.80;;
15393;SDS011;7795;47.986;11.868;2022-12-31T06:55:23;1.47;;;0.80;;
15393;SDS011;7795;47.986;11.868;2022-12-31T06:57:50;1.23;;;0.97;;
15393;SDS011;7795;47.986;11.868;2022-12-31T07:00:16;1.40;;;0.93;;
15393;SDS011;7795;47.986;11.868;2022-12-31T07:02:49;1.13;;;0.97;;
15393;SDS011;7795;47.986;11.868;2022-12-31T07:05:29;1.63;;;0.93;;
15393;SDS011;7795;47.986;11.868;2022-12-31T07:08:05;3.07;;;1.70;;
15393;SDS011;7795;47.986;11.868;2022-12-31T07:10:41;2.10;;;1.70;;
15393;SDS011;7795;47.986;11.868;2022-12-31T07:13:20;1.67;;;1.57;;
15393;SDS011;7795;47.986;11.868;2022-12-31T07:16:14;2.30;;;2.10;;
15393;SDS011;7795;47.986;11.868;2022-12-31T07:18:56;3.43;;;2.53;;
15393;SDS011;7795;47.986;11.868;2022-12-31T07:21:33;3.30;;;2.87;;
15393;SDS011;7795;47.986;11.868;2022-12-31T07:24:02;4.13;;;2.60;;
15393;SDS011;7795;47.986;11.868;2022-12-31T07:26:34;3.63;;;3.30;;
15393;SDS011;7795;47.986;11.868;2022-12-31T07:29:13;4.40;;;3.33;;
15393;SDS011;7795;47.986;11.868;2022-12-31T07:31:49;3.30;;;2.93;;
15393;SDS011;7795;47.986;11.868;2022-12-31T07:34:24;3.03;;;2.50;;
15393;SDS011;7795;47.986;11.868;2022-12-31T07:37:00;2.00;;;1.80;;
15393;SDS011;7795;47.986;11.868;2022-12-31T07:39:32;1.67;;;1.57;;
15393;SDS011;7795;47.986;11.868;2022-12-31T07:42:04;1.53;;;1.40;;
15393;SDS011;7795;47.986;11.868;2022-12-31T07:44:40;2.17;;;1.07;;
15393;SDS011;7795;47.986;11.868;2022-12-31T07:47:20;1.23;;;1.13;;
15393;SDS011;7795;47.986;11.868;2022-12-31T07:49:47;0.90;;;0.87;;
15393;SDS011;7795;47.986;11.868;2022-12-31T07:52:15;1.50;;;0.70;;
15393;SDS011;7795;47.986;11.868;2022-12-31T07:54:41;1.27;;;0.90;;
15393;SDS011;7795;47.986;11.868;2022-12-31T07:57:07;1.60;;;1.10;;
15393;SDS011;7795;47.986;11.868;2022-12-31T07:59:36;1.73;;;0.93;;
15393;SDS011;7795;47.986;11.868;2022-12-31T08:02:12;2.40;;;0.87;;
15393;SDS011;7795;47.986;11.868;2022-12-31T08:04:47;1.10;;;0.80;;
15393;SDS011;7795;47.986;11.868;2022-12-31T08:07:23;2.47;;;2.10;;
15393;SDS011;7795;47.986;11.868;2022-12-31T08:09:58;1.77;;;1.67;;
15393;SDS011;7795;47.986;11.868;2022-12-31T08:12:30;2.67;;;1.30;;
15393;SDS011;7795;47.986;11.868;2022-12-31T08:14:59;1.97;;;1.40;;
15393;SDS011;7795;47.986;11.868;2022-12-31T08:17:25;3.13;;;2.20;;
15393;SDS011;7795;47.986;11.868;2022-12-31T08:19:51;3.20;;;1.80;;
15393;SDS011;7795;47.986;11.868;2022-12-31T08:22:23;1.93;;;1.67;;
15393;SDS011;7795;47.986;11.868;2022-12-31T08:25:07;3.23;;;1.37;;
15393;SDS011;7795;47.986;11.868;2022-12-31T08:27:42;1.70;;;1.20;;
15393;SDS011;7795;47.986;11.868;2022-12-31T08:30:15;2.50;;;1.53;;
15393;SDS011;7795;47.986;11.868;2022-12-31T08:32:45;1.70;;;1.40;;
15393;SDS011;7795;47.986;11.868;2022-12-31T08:35:18;1.50;;;1.40;;
15393;SDS011;7795;47.986;11.868;2022-12-31T08:37:54;1.00;;;0.80;;
15393;SDS011;7795;47.986;11.868;2022-12-31T08:40:27;4.13;;;1.43;;
15393;SDS011;7795;47.986;11.868;2022-12-31T08:43:03;0.90;;;0.80;;
15393;SDS011;7795;47.986;11.868;2022-12-31T08:45:38;1.63;;;1.10;;
15393;SDS011;7795;47.986;11.868;2022-12-31T08:48:11;1.73;;;0.80;;
15393;SDS011;7795;47.986;11.868;2022-12-31T08:50:46;1.67;;;1.10;;
15393;SDS011;7795;47.986;11.868;2022-12-31T08:53:14;1.10;;;1.00;;
15393;SDS011;7795;47.986;11.868;2022-12-31T08:55:40;1.57;;;1.20;;
15393;SDS011;7795;47.986;11.868;2022-12-31T08:58:11;1.40;;;1.13;;
15393;SDS011;7795;47.986;11.868;2022-12-31T09:00:49;15.90;;;2.70;;
15393;SDS011;7795;47.986;11.868;2022-12-31T09:03:32;7.20;;;2.00;;
15393;SDS011;7795;47.986;11.868;2022-12-31T09:06:11;6.03;;;1.77;;
15393;SDS011;7795;47.986;11.868;2022-12-31T09:08:46;4.80;;;1.40;;
15393;SDS011;7795;47.986;11.868;2022-12-31T09:11:19;2.03;;;1.10;;
15393;SDS011;7795;47.986;11.868;2022-12-31T09:13:57;3.67;;;1.53;;
15393;SDS011;7795;47.986;11.868;2022-12-31T09:16:31;2.97;;;1.60;;
15393;SDS011;7795;47.986;11.868;2022-12-31T09:19:03;3.20;;;1.83;;
15393;SDS011;7795;47.986;11.868;2022-12-31T09:21:29;2.00;;;1.60;;
15393;SDS011;7795;47.986;11.868;2022-12-31T09:23:58;4.17;;;2.20;;
15393;SDS011;7795;47.986;11.868;2022-12-31T09:26:33;1.87;;;1.40;;
15393;SDS011;7795;47.986;11.868;2022-12-31T09:29:09;1.50;;;1.27;;
15393;SDS011;7795;47.986;11.868;2022-12-31T09:31:46;1.60;;;1.40;;
15393;SDS011;7795;47.986;11.868;2022-12-31T09:34:18;1.67;;;1.40;;
15393;SDS011;7795;47.986;11.868;2022-12-31T09:36:49;3.67;;;2.33;;
15393;SDS011;7795;47.986;11.868;2022-12-31T09:39:24;1.50;;;1.40;;
15393;SDS011;7795;47.986;11.868;2022-12-31T09:42:07;1.60;;;1.40;;
15393;SDS011;7795;47.986;11.868;2022-12-31T09:45:10;1.30;;;1.20;;
15393;SDS011;7795;47.986;11.868;2022-12-31T09:48:06;1.10;;;0.90;;
15393;SDS011;7795;47.986;11.868;2022-12-31T09:51:01;2.47;;;1.53;;
15393;SDS011;7795;47.986;11.868;2022-12-31T09:53:51;1.10;;;0.90;;
15393;SDS011;7795;47.986;11.868;2022-12-31T09:56:33;1.10;;;0.90;;
15393;SDS011;7795;47.986;11.868;2022-12-31T09:59:04;2.27;;;1.30;;
15393;SDS011;7795;47.986;11.868;2022-12-31T10:01:36;2.17;;;1.20;;
15393;SDS011;7795;47.986;11.868;2022-12-31T10:04:18;1.00;;;0.90;;
15393;SDS011;7795;47.986;11.868;2022-12-31T10:06:56;1.67;;;1.10;;
15393;SDS011;7795;47.986;11.868;2022-12-31T10:09:38;3.23;;;1.10;;
15393;SDS011;7795;47.986;11.868;2022-12-31T10:15:11;2.00;;;1.30;;
15393;SDS011;7795;47.986;11.868;2022-12-31T10:17:57;1.90;;;1.00;;
15393;SDS011;7795;47.986;11.868;2022-12-31T10:20:47;0.83;;;0.80;;
15393;SDS011;7795;47.986;11.868;2022-12-31T10:23:29;1.17;;;0.90;;
15393;SDS011;7795;47.986;11.868;2022-12-31T10:26:28;1.37;;;1.10;;
15393;SDS011;7795;47.986;11.868;2022-12-31T10:29:21;1.20;;;0.80;;
15393;SDS011;7795;47.986;11.868;2022-12-31T10:31:52;1.20;;;0.90;;
15393;SDS011;7795;47.986;11.868;2022-12-31T10:34:25;1.67;;;1.10;;
15393;SDS011;7795;47.986;11.868;2022-12-31T10:37:01;1.13;;;0.90;;
15393;SDS011;7795;47.986;11.868;2022-12-31T10:39:37;0.97;;;0.87;;
15393;SDS011;7795;47.986;11.868;2022-12-31T10:42:21;2.40;;;0.83;;
15393;SDS011;7795;47.986;11.868;2022-12-31T10:48:48;1.10;;;0.90;;
15393;SDS011;7795;47.986;11.868;2022-12-31T10:58:16;1.00;;;1.00;;
15393;SDS011;7795;47.986;11.868;2022-12-31T11:01:09;1.57;;;1.00;;
15393;SDS011;7795;47.986;11.868;2022-12-31T11:15:55;4.53;;;1.57;;
15393;SDS011;7795;47.986;11.868;2022-12-31T11:18:34;2.80;;;1.10;;
15393;SDS011;7795;47.986;11.868;2022-12-31T11:21:11;3.07;;;1.40;;
15393;SDS011;7795;47.986;11.868;2022-12-31T11:23:48;3.83;;;1.40;;
15393;SDS011;7795;47.986;11.868;2022-12-31T11:26:25;3.60;;;1.13;;
15393;SDS011;7795;47.986;11.868;2022-12-31T11:29:02;1.70;;;0.73;;
15393;SDS011;7795;47.986;11.868;2022-12-31T11:31:41;1.33;;;0.90;;
15393;SDS011;7795;47.986;11.868;2022-12-31T11:34:30;2.87;;;1.10;;
15393;SDS011;7795;47.986;11.868;2022-12-31T11:37:26;1.23;;;0.90;;
15393;SDS011;7795;47.986;11.868;2022-12-31T11:40:00;2.87;;;1.40;;
15393;SDS011;7795;47.986;11.868;2022-12-31T11:42:39;2.47;;;1.07;;
15393;SDS011;7795;47.986;11.868;2022-12-31T11:45:12;4.47;;;1.23;;
15393;SDS011;7795;47.986;11.868;2022-12-31T11:47:49;4.10;;;1.73;;
15393;SDS011;7795;47.986;11.868;2022-12-31T11:50:25;2.50;;;1.80;;
15393;SDS011;7795;47.986;11.868;2022-12-31T11:52:56;4.37;;;2.30;;
15393;SDS011;7795;47.986;11.868;2022-12-31T11:55:39;1.83;;;1.53;;
15393;SDS011;7795;47.986;11.868;2022-12-31T11:58:15;4.00;;;2.03;;
15393;SDS011;7795;47.986;11.868;2022-12-31T12:00:44;2.37;;;1.43;;
15393;SDS011;7795;47.986;11.868;2022-12-31T12:03:17;7.43;;;1.80;;
15393;SDS011;7795;47.986;11.868;2022-12-31T12:05:43;3.17;;;1.23;;
15393;SDS011;7795;47.986;11.868;2022-12-31T12:08:09;8.13;;;1.63;;
15393;SDS011;7795;47.986;11.868;2022-12-31T12:10:37;3.03;;;1.20;;
15393;SDS011;7795;47.986;11.868;2022-12-31T12:13:12;2.10;;;1.27;;
15393;SDS011;7795;47.986;11.868;2022-12-31T12:15:44;4.10;;;1.20;;
15393;SDS011;7795;47.986;11.868;2022-12-31T12:18:14;5.20;;;1.40;;
15393;SDS011;7795;47.986;11.868;2022-12-31T12:20:59;2.70;;;1.50;;
15393;SDS011;7795;47.986;11.868;2022-12-31T12:23:27;3.13;;;1.60;;
15393;SDS011;7795;47.986;11.868;2022-12-31T12:25:54;2.20;;;1.20;;
15393;SDS011;7795;47.986;11.868;2022-12-31T12:28:21;3.80;;;1.20;;
15393;SDS011;7795;47.986;11.868;2022-12-31T12:30:53;3.20;;;1.17;;
15393;SDS011;7795;47.986;11.868;2022-12-31T12:33:21;2.37;;;1.00;;
15393;SDS011;7795;47.986;11.868;2022-12-31T12:35:47;4.70;;;1.33;;
15393;SDS011;7795;47.986;11.868;2022-12-31T12:38:15;1.60;;;1.17;;
15393;SDS011;7795;47.986;11.868;2022-12-31T12:40:51;4.37;;;1.10;;
15393;SDS011;7795;47.986;11.868;2022-12-31T12:43:21;1.40;;;0.93;;
15393;SDS011;7795;47.986;11.868;2022-12-31T12:45:50;4.20;;;1.00;;
15393;SDS011;7795;47.986;11.868;2022-12-31T12:48:17;1.27;;;0.70;;
15393;SDS011;7795;47.986;11.868;2022-12-31T12:50:55;4.07;;;1.40;;
15393;SDS011;7795;47.986;11.868;2022-12-31T12:53:28;6.10;;;1.30;;
15393;SDS011;7795;47.986;11.868;2022-12-31T12:56:05;4.63;;;1.20;;
15393;SDS011;7795;47.986;11.868;2022-12-31T12:58:47;1.37;;;0.90;;
15393;SDS011;7795;47.986;11.868;2022-12-31T13:01:24;2.30;;;1.27;;
15393;SDS011;7795;47.986;11.868;2022-12-31T13:04:15;2.77;;;1.23;;
15393;SDS011;7795;47.986;11.868;2022-12-31T13:06:58;3.33;;;1.30;;
15393;SDS011;7795;47.986;11.868;2022-12-31T13:09:37;2.17;;;1.03;;
15393;SDS011;7795;47.986;11.868;2022-12-31T13:12:13;3.30;;;1.43;;
15393;SDS011;7795;47.986;11.868;2022-12-31T13:14:47;1.97;;;1.13;;
15393;SDS011;7795;47.986;11.868;2022-12-31T13:17:31;1.70;;;1.00;;
15393;SDS011;7795;47.986;11.868;2022-12-31T13:20:13;3.00;;;1.03;;
15393;SDS011;7795;47.986;11.868;2022-12-31T13:22:45;1.73;;;1.13;;
15393;SDS011;7795;47.986;11.868;2022-12-31T13:25:19;1.30;;;1.10;;
15393;SDS011;7795;47.986;11.868;2022-12-31T13:27:53;1.27;;;1.10;;
15393;SDS011;7795;47.986;11.868;2022-12-31T13:30:24;1.67;;;0.83;;
15393;SDS011;7795;47.986;11.868;2022-12-31T13:32:56;2.80;;;1.20;;
15393;SDS011;7795;47.986;11.868;2022-12-31T13:35:26;4.37;;;0.90;;
15393;SDS011;7795;47.986;11.868;2022-12-31T13:37:56;2.13;;;0.90;;
15393;SDS011;7795;47.986;11.868;2022-12-31T13:40:28;1.40;;;1.10;;
15393;SDS011;7795;47.986;11.868;2022-12-31T13:42:56;5.37;;;1.53;;
15393;SDS011;7795;47.986;11.868;2022-12-31T13:45:28;2.90;;;1.10;;
15393;SDS011;7795;47.986;11.868;2022-12-31T13:47:58;1.40;;;0.87;;
15393;SDS011;7795;47.986;11.868;2022-12-31T13:50:30;4.57;;;1.40;;
15393;SDS011;7795;47.986;11.868;2022-12-31T13:53:02;5.57;;;1.30;;
15393;SDS011;7795;47.986;11.868;2022-12-31T13:55:36;4.13;;;1.10;;
15393;SDS011;7795;47.986;11.868;2022-12-31T13:58:05;5.57;;;1.20;;
15393;SDS011;7795;47.986;11.868;2022-12-31T14:00:42;1.33;;;0.93;;
15393;SDS011;7795;47.986;11.868;2022-12-31T14:03:11;4.30;;;1.60;;
15393;SDS011;7795;47.986;11.868;2022-12-31T14:05:45;1.30;;;1.20;;
15393;SDS011;7795;47.986;11.868;2022-12-31T14:08:16;3.60;;;1.00;;
15393;SDS011;7795;47.986;11.868;2022-12-31T14:10:47;1.63;;;0.90;;
15393;SDS011;7795;47.986;11.868;2022-12-31T14:13:26;3.77;;;1.00;;
15393;SDS011;7795;47.986;11.868;2022-12-31T14:16:06;1.47;;;0.90;;
15393;SDS011;7795;47.986;11.868;2022-12-31T14:18:38;2.53;;;1.30;;
15393;SDS011;7795;47.986;11.868;2022-12-31T14:21:11;5.23;;;3.00;;
15393;SDS011;7795;47.986;11.868;2022-12-31T14:23:41;6.07;;;3.50;;
15393;SDS011;7795;47.986;11.868;2022-12-31T14:26:16;6.00;;;2.67;;
15393;SDS011;7795;47.986;11.868;2022-12-31T14:28:48;5.33;;;2.80;;
15393;SDS011;7795;47.986;11.868;2022-12-31T14:31:22;6.87;;;4.40;;
15393;SDS011;7795;47.986;11.868;2022-12-31T14:33:58;5.83;;;3.30;;
15393;SDS011;7795;47.986;11.868;2022-12-31T14:36:32;4.47;;;3.73;;
15393;SDS011;7795;47.986;11.868;2022-12-31T14:39:12;9.53;;;3.90;;
15393;SDS011;7795;47.986;11.868;2022-12-31T14:41:57;8.83;;;3.70;;
15393;SDS011;7795;47.986;11.868;2022-12-31T14:44:36;6.87;;;3.50;;
15393;SDS011;7795;47.986;11.868;2022-12-31T14:47:17;5.43;;;3.40;;
15393;SDS011;7795;47.986;11.868;2022-12-31T14:49:52;5.50;;;2.67;;
15393;SDS011;7795;47.986;11.868;2022-12-31T14:52:28;5.63;;;2.97;;
15393;SDS011;7795;47.986;11.868;2022-12-31T14:54:57;3.80;;;2.70;;
15393;SDS011;7795;47.986;11.868;2022-12-31T14:57:25;5.70;;;3.27;;
15393;SDS011;7795;47.986;11.868;2022-12-31T14:59:58;7.27;;;3.00;;
15393;SDS011;7795;47.986;11.868;2022-12-31T15:02:27;4.57;;;2.67;;
15393;SDS011;7795;47.986;11.868;2022-12-31T15:05:03;5.90;;;2.50;;
15393;SDS011;7795;47.986;11.868;2022-12-31T15:07:39;3.47;;;2.10;;
15393;SDS011;7795;47.986;11.868;2022-12-31T15:10:17;3.07;;;2.03;;
15393;SDS011;7795;47.986;11.868;2022-12-31T15:12:50;7.50;;;4.60;;
15393;SDS011;7795;47.986;11.868;2022-12-31T15:15:37;4.57;;;2.90;;
15393;SDS011;7795;47.986;11.868;2022-12-31T15:18:29;5.00;;;2.37;;
15393;SDS011;7795;47.986;11.868;2022-12-31T15:21:08;3.77;;;2.67;;
15393;SDS011;7795;47.986;11.868;2022-12-31T15:23:51;3.87;;;2.43;;
15393;SDS011;7795;47.986;11.868;2022-12-31T15:26:21;6.17;;;3.33;;
15393;SDS011;7795;47.986;11.868;2022-12-31T15:28:54;4.33;;;2.70;;
15393;SDS011;7795;47.986;11.868;2022-12-31T15:31:23;6.90;;;3.97;;
15393;SDS011;7795;47.986;11.868;2022-12-31T15:33:55;8.90;;;5.40;;
15393;SDS011;7795;47.986;11.868;2022-12-31T15:36:24;5.53;;;4.23;;
15393;SDS011;7795;47.986;11.868;2022-12-31T15:38:53;6.13;;;2.93;;
15393;SDS011;7795;47.986;11.868;2022-12-31T15:41:35;3.33;;;2.40;;